Página principal
METAR-TAF:

METAR-TAF

Aeroportos :

Aeroporto de Taiyuan Wusu

Taiyuan, China

latitude: 37-47N, longitude: 112-33E, altura: 779 m

Observação actual do tempo

O boletim foi feito há 12 minutos, às 15:30 UTC
Vento 4 kt de sul, variando entre sudeste e su-sudoeste
Temperatura -3°C
Humidade 46%
Pressão 1027 hPa
Visibilidade 10 km ou mais
sem nuvens abaixo de 1500 metros e sem cumulonimbus

METAR: ZBYN 211530Z 18002MPS 140V210 CAVOK M03/M13 Q1027 NOSIG

Hora: 23:42 (15:42 UTC)

Previsão

O boletim foi feito há 6 horas e 33 minutos, às 09:09 UTC
Previsão válida de 21 às 12 UTC a 22 às 12 UTC
Vento 8 kt de oes-noroeste
Visibilidade: 6000 m

TAF: ZBYN 210909Z 2112/2212 30004MPS 6000 NSC TX09/2207Z TNM07/21Z

Observações e previsões do tempo de mais de 4000 aeroportos (mensagens METAR e TAF).

As estações disponíveis são os pontos amarelos e vermelhos sobre o mapa.

Mova o rato sobre o mapa para ver o nome da estação.

Depois clique no ponto para visualizar as observações e previsões meteorológicas.

Para alterar o mapa : clique nos botões verdes com uma cruz preta para aumentar o zoom; no botão verde com uma pitada de zoom; ou nas setas verdes para mapas adjacentes.


METAR-TAF: